Guilderland, NY (12084)

6:44 AM EDT on September 19, 2014 (GMT -0400)
Guilderland | Change Station
CLOSE
Current Station
Personal Weather Station
Location: Albany, NY
Elevation: 305 ft
Nearby Weather Stations

Elev 305 ft 42.69 °N, 73.87 °W | Updated 5 minutes ago

Mostly Cloudy
Mostly Cloudy
42.1 °F
Feels Like 42 °F
N
0.0
Wind Variable Wind from NE
Gusts 0.0 mph

Today
High -- | Low -- °F
--% Chance of Precip.
Yesterday
High -- | Low -- °F
Precip. -- in
6:39 AM 6:58 PM
Waning Crescent, 20% visible
Pressure 30.33 in
Visibility 10.0 miles
Clouds Mostly Cloudy 4200 ft
Windchill 42 °F
Dew Point 39 °F
Humidity 89%
Rainfall 0.00 in
Snow Depth Not available.
UV 0 out of 12
Pollen 2.90 out of 12
PM2.5 Good
Flu Activity Not available.
METAR KALB 190951Z 01007KT 10SM BKN042 06/02 A3033 RMK AO2 SLP269 T00560017

More Conditions Fewer Conditions

Pressure 30.33 in
Visibility 10.0 miles
Clouds Mostly Cloudy 4200 ft
Windchill 42 °F
Dew Point 39 °F
Humidity 89%
Rainfall 0.00 in
Snow Depth Not available.
UV 0 out of 12
Pollen 2.90 out of 12
PM2.5 Good
Flu Activity Not available.
METAR KALB 190951Z 01007KT 10SM BKN042 06/02 A3033 RMK AO2 SLP269 T00560017

More Conditions Fewer Conditions

10-Day Weather Forecast

Almanac

Astronomy

Sep. 19, 2014 Rise Set
Actual Time 6:39 AM EDT 6:58 PM EDT
Civil Twilight 6:11 AM EDT 7:26 PM EDT
Nautical Twilight 5:38 AM EDT 7:59 PM EDT
Astronomical Twilight 5:04 AM EDT 8:33 PM EDT
Moon 2:17 AM EDT 4:29 PM EDT
Length of Visible Light 13h 15m
Length of Day
12h 18m
Tomorrow will be 2m 53s shorter.
Waning Crescent, 20% of the Moon is Illuminated
Today
Waning Crescent
Sep 24
New
Oct 1
First Quarter
Oct 8
Full
Oct 15
Last Quarter

Today's Extremes

State Highs State Lows

Community

WunderPhotos

Upload Photos

1,754,591 photos uploaded!

Nearby

Air Quality

  Air Quality AQ Index Pollutant
Yesterday Good
PM2.5
Yesterday Good
OZONE
Current Good
PM2.5
Friday Good
OZONE
Friday Good
PM2.5

Snow Depth

Station Depth Elevation
No new snow has been reported.

Earthquake Activity

City Distance Mag. Time & Date
No recent earthquake activity has been reported nearby.
Minimum magnitude displayed is 2.5.

Coastal Water Temperatures

Place Temperature
No Stations Reporting

Nearby Weather Stations